sensor_id;sensor_type;location;lat;lon;timestamp;pressure;altitude;pressure_sealevel;temperature;humidity
29461;BME280;16428;47.836;35.106;2022-12-18T00:01:58;101353.97;;;12.08;100.00
29461;BME280;16428;47.836;35.106;2022-12-18T00:04:32;101357.34;;;12.18;100.00
29461;BME280;16428;47.836;35.106;2022-12-18T00:07:02;101374.69;;;12.15;100.00
29461;BME280;16428;47.836;35.106;2022-12-18T00:09:33;101382.91;;;12.30;100.00
29461;BME280;16428;47.836;35.106;2022-12-18T00:12:08;101369.13;;;12.17;100.00
29461;BME280;16428;47.836;35.106;2022-12-18T00:14:45;101380.72;;;12.25;100.00
29461;BME280;16428;47.836;35.106;2022-12-18T00:17:14;101381.06;;;12.22;100.00
29461;BME280;16428;47.836;35.106;2022-12-18T00:19:46;101378.91;;;12.18;100.00
29461;BME280;16428;47.836;35.106;2022-12-18T00:22:18;101377.19;;;12.33;100.00
29461;BME280;16428;47.836;35.106;2022-12-18T00:24:46;101382.25;;;12.20;100.00
29461;BME280;16428;47.836;35.106;2022-12-18T00:27:15;101380.16;;;12.38;100.00
29461;BME280;16428;47.836;35.106;2022-12-18T00:29:44;101378.53;;;12.37;100.00
29461;BME280;16428;47.836;35.106;2022-12-18T00:32:13;101368.41;;;12.31;100.00
29461;BME280;16428;47.836;35.106;2022-12-18T00:34:49;101373.47;;;12.26;100.00
29461;BME280;16428;47.836;35.106;2022-12-18T00:37:18;101374.16;;;12.28;100.00
29461;BME280;16428;47.836;35.106;2022-12-18T00:39:48;101385.25;;;12.33;100.00
29461;BME280;16428;47.836;35.106;2022-12-18T00:42:18;101378.03;;;12.33;100.00
29461;BME280;16428;47.836;35.106;2022-12-18T00:45:06;101391.81;;;12.30;100.00
29461;BME280;16428;47.836;35.106;2022-12-18T00:47:39;101389.78;;;12.41;100.00
29461;BME280;16428;47.836;35.106;2022-12-18T00:50:10;101392.81;;;12.46;100.00
29461;BME280;16428;47.836;35.106;2022-12-18T00:52:39;101399.16;;;12.53;100.00
29461;BME280;16428;47.836;35.106;2022-12-18T00:55:10;101395.38;;;12.23;100.00
29461;BME280;16428;47.836;35.106;2022-12-18T00:57:40;101403.09;;;12.26;100.00
29461;BME280;16428;47.836;35.106;2022-12-18T01:00:13;101407.31;;;12.37;100.00
29461;BME280;16428;47.836;35.106;2022-12-18T01:02:47;101419.56;;;12.47;100.00
29461;BME280;16428;47.836;35.106;2022-12-18T01:05:17;101415.53;;;12.43;100.00
29461;BME280;16428;47.836;35.106;2022-12-18T01:07:45;101423.28;;;12.38;100.00
29461;BME280;16428;47.836;35.106;2022-12-18T01:10:13;101431.69;;;12.43;100.00
29461;BME280;16428;47.836;35.106;2022-12-18T01:12:43;101423.66;;;12.35;100.00
29461;BME280;16428;47.836;35.106;2022-12-18T01:15:12;101419.41;;;12.49;100.00
29461;BME280;16428;47.836;35.106;2022-12-18T01:17:47;101425.63;;;12.49;100.00
29461;BME280;16428;47.836;35.106;2022-12-18T01:20:17;101425.34;;;12.36;100.00
29461;BME280;16428;47.836;35.106;2022-12-18T01:22:47;101429.03;;;12.35;100.00
29461;BME280;16428;47.836;35.106;2022-12-18T01:25:16;101426.34;;;12.27;100.00
29461;BME280;16428;47.836;35.106;2022-12-18T01:27:53;101419.94;;;12.36;100.00
29461;BME280;16428;47.836;35.106;2022-12-18T01:30:22;101427.34;;;12.34;100.00
29461;BME280;16428;47.836;35.106;2022-12-18T01:32:51;101429.19;;;12.42;100.00
29461;BME280;16428;47.836;35.106;2022-12-18T01:35:21;101425.34;;;12.20;100.00
29461;BME280;16428;47.836;35.106;2022-12-18T01:37:58;101427.03;;;12.21;100.00
29461;BME280;16428;47.836;35.106;2022-12-18T01:40:27;101432.75;;;12.34;100.00
29461;BME280;16428;47.836;35.106;2022-12-18T01:42:56;101444.84;;;12.38;100.00
29461;BME280;16428;47.836;35.106;2022-12-18T01:45:31;101436.13;;;12.20;100.00
29461;BME280;16428;47.836;35.106;2022-12-18T01:48:02;101442.53;;;11.94;100.00
29461;BME280;16428;47.836;35.106;2022-12-18T01:50:42;101437.81;;;12.13;100.00
29461;BME280;16428;47.836;35.106;2022-12-18T01:53:21;101434.78;;;12.08;100.00
29461;BME280;16428;47.836;35.106;2022-12-18T01:55:55;101438.47;;;12.15;100.00
29461;BME280;16428;47.836;35.106;2022-12-18T02:01:32;101458.00;;;11.84;100.00
29461;BME280;16428;47.836;35.106;2022-12-18T02:04:24;101460.16;;;11.73;100.00
29461;BME280;16428;47.836;35.106;2022-12-18T02:10:03;101469.09;;;11.81;100.00
29461;BME280;16428;47.836;35.106;2022-12-18T02:12:53;101473.53;;;11.48;100.00
29461;BME280;16428;47.836;35.106;2022-12-18T02:15:38;101491.69;;;11.46;100.00
29461;BME280;16428;47.836;35.106;2022-12-18T02:18:19;101488.97;;;11.30;100.00
29461;BME280;16428;47.836;35.106;2022-12-18T02:26:57;101515.81;;;11.22;100.00
29461;BME280;16428;47.836;35.106;2022-12-18T02:32:09;101529.34;;;11.04;100.00
29461;BME280;16428;47.836;35.106;2022-12-18T02:34:43;101534.81;;;11.20;100.00
29461;BME280;16428;47.836;35.106;2022-12-18T02:37:15;101546.47;;;11.03;100.00
29461;BME280;16428;47.836;35.106;2022-12-18T02:39:48;101543.00;;;10.85;100.00
29461;BME280;16428;47.836;35.106;2022-12-18T02:42:18;101558.25;;;10.50;100.00
29461;BME280;16428;47.836;35.106;2022-12-18T02:44:49;101565.72;;;10.39;100.00
29461;BME280;16428;47.836;35.106;2022-12-18T02:47:21;101560.00;;;10.06;100.00
29461;BME280;16428;47.836;35.106;2022-12-18T02:50:26;101566.22;;;10.07;100.00
29461;BME280;16428;47.836;35.106;2022-12-18T02:56:16;101572.13;;;9.93;100.00
29461;BME280;16428;47.836;35.106;2022-12-18T02:58:56;101576.50;;;9.66;100.00
29461;BME280;16428;47.836;35.106;2022-12-18T03:04:51;101586.28;;;9.30;100.00
29461;BME280;16428;47.836;35.106;2022-12-18T03:07:34;101596.56;;;9.35;100.00
29461;BME280;16428;47.836;35.106;2022-12-18T03:10:11;101611.44;;;9.57;100.00
29461;BME280;16428;47.836;35.106;2022-12-18T03:13:13;101620.53;;;9.46;100.00
29461;BME280;16428;47.836;35.106;2022-12-18T03:15:53;101626.75;;;9.46;100.00
29461;BME280;16428;47.836;35.106;2022-12-18T03:18:36;101625.41;;;9.23;100.00
29461;BME280;16428;47.836;35.106;2022-12-18T03:21:11;101631.53;;;9.43;100.00
29461;BME280;16428;47.836;35.106;2022-12-18T03:23:45;101643.91;;;9.16;100.00
29461;BME280;16428;47.836;35.106;2022-12-18T03:26:20;101648.47;;;8.87;100.00
29461;BME280;16428;47.836;35.106;2022-12-18T03:29:00;101656.50;;;8.87;100.00
29461;BME280;16428;47.836;35.106;2022-12-18T03:31:36;101674.31;;;8.69;100.00
29461;BME280;16428;47.836;35.106;2022-12-18T03:34:13;101669.78;;;8.50;100.00
29461;BME280;16428;47.836;35.106;2022-12-18T03:36:43;101681.88;;;8.44;100.00
29461;BME280;16428;47.836;35.106;2022-12-18T03:39:12;101677.09;;;8.48;100.00
29461;BME280;16428;47.836;35.106;2022-12-18T03:41:55;101677.09;;;8.58;100.00
29461;BME280;16428;47.836;35.106;2022-12-18T03:45:32;101685.13;;;8.38;100.00
29461;BME280;16428;47.836;35.106;2022-12-18T03:47:57;101693.16;;;8.38;100.00
29461;BME280;16428;47.836;35.106;2022-12-18T03:50:56;101699.78;;;8.34;100.00
29461;BME280;16428;47.836;35.106;2022-12-18T03:53:47;101701.00;;;8.30;100.00
29461;BME280;16428;47.836;35.106;2022-12-18T03:56:22;101697.94;;;8.44;100.00
29461;BME280;16428;47.836;35.106;2022-12-18T03:58:53;101704.28;;;8.34;100.00
29461;BME280;16428;47.836;35.106;2022-12-18T04:01:31;101706.34;;;8.30;100.00
29461;BME280;16428;47.836;35.106;2022-12-18T04:04:02;101706.22;;;8.22;100.00
29461;BME280;16428;47.836;35.106;2022-12-18T04:06:37;101705.16;;;8.04;100.00
29461;BME280;16428;47.836;35.106;2022-12-18T04:09:14;101715.09;;;8.23;100.00
29461;BME280;16428;47.836;35.106;2022-12-18T04:11:51;101721.38;;;8.12;100.00
29461;BME280;16428;47.836;35.106;2022-12-18T04:14:20;101729.28;;;8.13;100.00
29461;BME280;16428;47.836;35.106;2022-12-18T04:16:50;101720.63;;;7.91;100.00
29461;BME280;16428;47.836;35.106;2022-12-18T04:19:19;101732.53;;;8.17;100.00
29461;BME280;16428;47.836;35.106;2022-12-18T04:21:50;101732.69;;;8.25;100.00
29461;BME280;16428;47.836;35.106;2022-12-18T04:24:20;101735.53;;;8.24;100.00
29461;BME280;16428;47.836;35.106;2022-12-18T04:26:50;101738.25;;;8.03;100.00
29461;BME280;16428;47.836;35.106;2022-12-18T04:29:26;101748.25;;;8.01;100.00
29461;BME280;16428;47.836;35.106;2022-12-18T04:31:55;101742.53;;;7.85;100.00
29461;BME280;16428;47.836;35.106;2022-12-18T04:34:24;101750.31;;;7.88;100.00
29461;BME280;16428;47.836;35.106;2022-12-18T04:37:02;101763.84;;;7.65;100.00
29461;BME280;16428;47.836;35.106;2022-12-18T04:39:42;101765.63;;;7.55;100.00
29461;BME280;16428;47.836;35.106;2022-12-18T04:42:21;101763.59;;;7.68;100.00
29461;BME280;16428;47.836;35.106;2022-12-18T04:44:54;101779.88;;;7.65;100.00
29461;BME280;16428;47.836;35.106;2022-12-18T04:47:32;101791.56;;;7.64;100.00
29461;BME280;16428;47.836;35.106;2022-12-18T04:50:01;101791.34;;;7.47;100.00
29461;BME280;16428;47.836;35.106;2022-12-18T04:52:34;101793.59;;;7.51;100.00
29461;BME280;16428;47.836;35.106;2022-12-18T04:55:03;101797.16;;;7.20;100.00
29461;BME280;16428;47.836;35.106;2022-12-18T04:57:33;101791.69;;;7.21;100.00
29461;BME280;16428;47.836;35.106;2022-12-18T05:00:06;101801.84;;;7.06;100.00
29461;BME280;16428;47.836;35.106;2022-12-18T05:02:34;101803.47;;;7.19;100.00
29461;BME280;16428;47.836;35.106;2022-12-18T05:05:04;101823.50;;;7.24;100.00
29461;BME280;16428;47.836;35.106;2022-12-18T05:07:35;101816.47;;;6.91;100.00
29461;BME280;16428;47.836;35.106;2022-12-18T05:10:07;101817.91;;;6.52;100.00
29461;BME280;16428;47.836;35.106;2022-12-18T05:12:38;101829.47;;;6.96;100.00
29461;BME280;16428;47.836;35.106;2022-12-18T05:15:32;101828.38;;;6.98;100.00
29461;BME280;16428;47.836;35.106;2022-12-18T05:18:02;101830.75;;;7.13;100.00
29461;BME280;16428;47.836;35.106;2022-12-18T05:20:35;101837.09;;;7.00;100.00
29461;BME280;16428;47.836;35.106;2022-12-18T05:23:03;101831.47;;;7.03;100.00
29461;BME280;16428;47.836;35.106;2022-12-18T05:25:34;101834.81;;;7.28;100.00
29461;BME280;16428;47.836;35.106;2022-12-18T05:28:04;101842.03;;;7.16;100.00
29461;BME280;16428;47.836;35.106;2022-12-18T05:30:32;101848.72;;;7.11;100.00
29461;BME280;16428;47.836;35.106;2022-12-18T05:33:02;101864.88;;;7.09;100.00
29461;BME280;16428;47.836;35.106;2022-12-18T05:35:30;101865.03;;;6.96;100.00
29461;BME280;16428;47.836;35.106;2022-12-18T05:38:09;101874.59;;;7.10;100.00
29461;BME280;16428;47.836;35.106;2022-12-18T05:40:43;101888.44;;;7.15;100.00
29461;BME280;16428;47.836;35.106;2022-12-18T05:43:12;101891.41;;;6.79;100.00
29461;BME280;16428;47.836;35.106;2022-12-18T05:45:48;101891.06;;;6.83;100.00
29461;BME280;16428;47.836;35.106;2022-12-18T05:48:21;101903.66;;;6.92;100.00
29461;BME280;16428;47.836;35.106;2022-12-18T05:50:53;101911.44;;;6.84;100.00
29461;BME280;16428;47.836;35.106;2022-12-18T05:53:23;101906.59;;;6.67;100.00
29461;BME280;16428;47.836;35.106;2022-12-18T05:55:54;101909.59;;;6.96;100.00
29461;BME280;16428;47.836;35.106;2022-12-18T05:58:23;101920.19;;;6.75;100.00
29461;BME280;16428;47.836;35.106;2022-12-18T06:00:52;101927.97;;;6.56;100.00
29461;BME280;16428;47.836;35.106;2022-12-18T06:03:21;101925.31;;;6.56;100.00
29461;BME280;16428;47.836;35.106;2022-12-18T06:05:53;101926.00;;;6.80;100.00
29461;BME280;16428;47.836;35.106;2022-12-18T06:08:23;101932.81;;;6.62;100.00
29461;BME280;16428;47.836;35.106;2022-12-18T06:10:52;101939.59;;;6.44;100.00
29461;BME280;16428;47.836;35.106;2022-12-18T06:13:21;101942.88;;;6.47;100.00
29461;BME280;16428;47.836;35.106;2022-12-18T06:15:52;101945.56;;;6.69;100.00
29461;BME280;16428;47.836;35.106;2022-12-18T06:18:24;101946.28;;;6.60;100.00
29461;BME280;16428;47.836;35.106;2022-12-18T06:20:58;101955.13;;;6.61;100.00
29461;BME280;16428;47.836;35.106;2022-12-18T06:23:26;101966.94;;;6.69;100.00
29461;BME280;16428;47.836;35.106;2022-12-18T06:25:55;101972.38;;;6.68;100.00
29461;BME280;16428;47.836;35.106;2022-12-18T06:28:24;101983.78;;;6.92;100.00
29461;BME280;16428;47.836;35.106;2022-12-18T06:30:54;101987.44;;;6.91;100.00
29461;BME280;16428;47.836;35.106;2022-12-18T06:33:26;101988.41;;;6.68;100.00
29461;BME280;16428;47.836;35.106;2022-12-18T06:36:04;101990.13;;;6.69;100.00
29461;BME280;16428;47.836;35.106;2022-12-18T06:38:39;101996.78;;;6.75;100.00
29461;BME280;16428;47.836;35.106;2022-12-18T06:41:19;101990.34;;;6.88;100.00
29461;BME280;16428;47.836;35.106;2022-12-18T06:43:52;102006.75;;;6.84;100.00
29461;BME280;16428;47.836;35.106;2022-12-18T06:46:28;102008.81;;;6.91;100.00
29461;BME280;16428;47.836;35.106;2022-12-18T06:48:58;102001.53;;;6.82;100.00
29461;BME280;16428;47.836;35.106;2022-12-18T06:51:27;102008.31;;;6.75;100.00
29461;BME280;16428;47.836;35.106;2022-12-18T06:53:57;102012.69;;;6.76;100.00
29461;BME280;16428;47.836;35.106;2022-12-18T06:56:26;102016.09;;;6.78;100.00
29461;BME280;16428;47.836;35.106;2022-12-18T06:58:55;102017.28;;;6.74;100.00
29461;BME280;16428;47.836;35.106;2022-12-18T07:01:24;102020.19;;;6.60;100.00
29461;BME280;16428;47.836;35.106;2022-12-18T07:03:56;102025.06;;;6.66;100.00
29461;BME280;16428;47.836;35.106;2022-12-18T07:06:25;102019.50;;;6.69;100.00
29461;BME280;16428;47.836;35.106;2022-12-18T07:08:56;102028.19;;;6.60;100.00
29461;BME280;16428;47.836;35.106;2022-12-18T07:11:27;102027.22;;;6.61;100.00
29461;BME280;16428;47.836;35.106;2022-12-18T07:13:59;102023.13;;;6.57;100.00
29461;BME280;16428;47.836;35.106;2022-12-18T07:16:28;102026.75;;;6.67;100.00
29461;BME280;16428;47.836;35.106;2022-12-18T07:18:58;102028.94;;;6.62;100.00
29461;BME280;16428;47.836;35.106;2022-12-18T07:21:32;102032.81;;;6.58;100.00
29461;BME280;16428;47.836;35.106;2022-12-18T07:24:03;102035.22;;;6.50;100.00
29461;BME280;16428;47.836;35.106;2022-12-18T07:26:38;102039.06;;;6.23;100.00
29461;BME280;16428;47.836;35.106;2022-12-18T07:29:07;102048.09;;;6.10;100.00
29461;BME280;16428;47.836;35.106;2022-12-18T07:31:36;102045.75;;;5.81;100.00
29461;BME280;16428;47.836;35.106;2022-12-18T07:34:10;102048.22;;;6.08;100.00
29461;BME280;16428;47.836;35.106;2022-12-18T07:36:42;102068.72;;;6.08;100.00
29461;BME280;16428;47.836;35.106;2022-12-18T07:39:11;102074.81;;;5.97;100.00
29461;BME280;16428;47.836;35.106;2022-12-18T07:41:49;102071.06;;;5.76;100.00
29461;BME280;16428;47.836;35.106;2022-12-18T07:44:37;102073.72;;;5.76;100.00
29461;BME280;16428;47.836;35.106;2022-12-18T07:47:06;102086.81;;;5.91;100.00
29461;BME280;16428;47.836;35.106;2022-12-18T07:49:41;102088.53;;;5.80;100.00
29461;BME280;16428;47.836;35.106;2022-12-18T07:52:14;102092.38;;;5.76;100.00
29461;BME280;16428;47.836;35.106;2022-12-18T07:54:56;102106.22;;;5.81;100.00
29461;BME280;16428;47.836;35.106;2022-12-18T07:57:25;102097.34;;;5.56;100.00
29461;BME280;16428;47.836;35.106;2022-12-18T08:00:15;102108.97;;;5.55;100.00
29461;BME280;16428;47.836;35.106;2022-12-18T08:02:45;102099.28;;;5.54;100.00
29461;BME280;16428;47.836;35.106;2022-12-18T08:05:18;102102.25;;;5.62;100.00
29461;BME280;16428;47.836;35.106;2022-12-18T08:07:51;102097.50;;;5.79;100.00
29461;BME280;16428;47.836;35.106;2022-12-18T08:10:22;102104.38;;;5.57;100.00
29461;BME280;16428;47.836;35.106;2022-12-18T08:13:06;102105.19;;;5.34;100.00
29461;BME280;16428;47.836;35.106;2022-12-18T08:15:46;102117.28;;;5.63;100.00
29461;BME280;16428;47.836;35.106;2022-12-18T08:18:21;102110.31;;;5.74;100.00
29461;BME280;16428;47.836;35.106;2022-12-18T08:21:24;102118.31;;;5.74;100.00
29461;BME280;16428;47.836;35.106;2022-12-18T08:24:11;102119.94;;;5.63;100.00
29461;BME280;16428;47.836;35.106;2022-12-18T08:26:43;102132.53;;;5.61;100.00
29461;BME280;16428;47.836;35.106;2022-12-18T08:29:59;102117.28;;;5.63;100.00
29461;BME280;16428;47.836;35.106;2022-12-18T08:33:14;102112.03;;;5.75;100.00
29461;BME280;16428;47.836;35.106;2022-12-18T08:35:48;102124.88;;;5.81;100.00
29461;BME280;16428;47.836;35.106;2022-12-18T08:38:46;102114.84;;;5.60;100.00
29461;BME280;16428;47.836;35.106;2022-12-18T08:41:25;102121.41;;;5.68;100.00
29461;BME280;16428;47.836;35.106;2022-12-18T08:43:57;102124.88;;;5.44;100.00
29461;BME280;16428;47.836;35.106;2022-12-18T08:46:49;102120.81;;;5.64;100.00
29461;BME280;16428;47.836;35.106;2022-12-18T08:49:19;102124.66;;;5.60;100.00
29461;BME280;16428;47.836;35.106;2022-12-18T08:51:48;102131.84;;;5.71;100.00
29461;BME280;16428;47.836;35.106;2022-12-18T08:54:22;102119.41;;;5.58;100.00
29461;BME280;16428;47.836;35.106;2022-12-18T08:56:51;102126.38;;;5.48;100.00
29461;BME280;16428;47.836;35.106;2022-12-18T08:59:21;102127.91;;;5.76;100.00
29461;BME280;16428;47.836;35.106;2022-12-18T09:01:53;102123.78;;;5.59;100.00
29461;BME280;16428;47.836;35.106;2022-12-18T09:04:24;102128.94;;;5.37;100.00
29461;BME280;16428;47.836;35.106;2022-12-18T09:06:54;102133.22;;;5.27;100.00
29461;BME280;16428;47.836;35.106;2022-12-18T09:09:26;102132.59;;;5.11;100.00
29461;BME280;16428;47.836;35.106;2022-12-18T09:11:55;102138.88;;;4.97;100.00
29461;BME280;16428;47.836;35.106;2022-12-18T09:14:25;102126.41;;;4.85;100.00
29461;BME280;16428;47.836;35.106;2022-12-18T09:16:56;102126.63;;;4.94;100.00
29461;BME280;16428;47.836;35.106;2022-12-18T09:19:25;102120.97;;;5.24;100.00
29461;BME280;16428;47.836;35.106;2022-12-18T09:21:54;102124.72;;;5.35;100.00
29461;BME280;16428;47.836;35.106;2022-12-18T09:24:26;102126.81;;;5.42;100.00
29461;BME280;16428;47.836;35.106;2022-12-18T09:26:55;102119.59;;;5.32;100.00
29461;BME280;16428;47.836;35.106;2022-12-18T09:29:25;102129.63;;;5.15;100.00
29461;BME280;16428;47.836;35.106;2022-12-18T09:31:55;102137.06;;;5.23;100.00
29461;BME280;16428;47.836;35.106;2022-12-18T09:34:38;102134.03;;;5.53;100.00
29461;BME280;16428;47.836;35.106;2022-12-18T09:37:10;102144.50;;;5.43;100.00
29461;BME280;16428;47.836;35.106;2022-12-18T09:39:42;102146.00;;;5.22;100.00
29461;BME280;16428;47.836;35.106;2022-12-18T09:42:21;102150.69;;;4.80;100.00
29461;BME280;16428;47.836;35.106;2022-12-18T09:44:53;102154.22;;;4.93;100.00
29461;BME280;16428;47.836;35.106;2022-12-18T09:47:35;102173.28;;;4.87;100.00
29461;BME280;16428;47.836;35.106;2022-12-18T09:50:40;102159.44;;;4.95;100.00
29461;BME280;16428;47.836;35.106;2022-12-18T09:53:15;102159.53;;;5.06;100.00
29461;BME280;16428;47.836;35.106;2022-12-18T09:55:47;102157.06;;;4.90;100.00
29461;BME280;16428;47.836;35.106;2022-12-18T10:01:19;102162.44;;;5.16;100.00
29461;BME280;16428;47.836;35.106;2022-12-18T10:03:53;102175.09;;;5.25;100.00
29461;BME280;16428;47.836;35.106;2022-12-18T10:06:37;102181.50;;;5.10;100.00
29461;BME280;16428;47.836;35.106;2022-12-18T10:12:23;102180.81;;;4.68;100.00
29461;BME280;16428;47.836;35.106;2022-12-18T10:15:27;102180.63;;;4.97;100.00
29461;BME280;16428;47.836;35.106;2022-12-18T10:21:21;102196.06;;;4.91;100.00
29461;BME280;16428;47.836;35.106;2022-12-18T10:27:15;102188.88;;;4.54;100.00
29461;BME280;16428;47.836;35.106;2022-12-18T10:29:45;102209.00;;;4.58;100.00
29461;BME280;16428;47.836;35.106;2022-12-18T10:32:25;102205.41;;;4.72;100.00
29461;BME280;16428;47.836;35.106;2022-12-18T10:34:58;102201.50;;;4.50;100.00
29461;BME280;16428;47.836;35.106;2022-12-18T14:12:47;102419.06;;;2.52;98.97
29461;BME280;16428;47.836;35.106;2022-12-18T14:15:47;102412.84;;;2.68;97.36
29461;BME280;16428;47.836;35.106;2022-12-18T14:18:50;102418.56;;;2.76;98.24
29461;BME280;16428;47.836;35.106;2022-12-18T14:21:37;102420.63;;;2.71;97.31
29461;BME280;16428;47.836;35.106;2022-12-18T14:24:33;102420.97;;;2.65;97.52
29461;BME280;16428;47.836;35.106;2022-12-18T14:27:29;102428.91;;;2.50;97.20
29461;BME280;16428;47.836;35.106;2022-12-18T14:33:27;102435.13;;;2.48;97.79
29461;BME280;16428;47.836;35.106;2022-12-18T14:36:26;102429.84;;;2.48;98.91
29461;BME280;16428;47.836;35.106;2022-12-18T14:39:17;102436.84;;;2.50;97.48
29461;BME280;16428;47.836;35.106;2022-12-18T14:42:22;102451.59;;;2.55;98.76
29461;BME280;16428;47.836;35.106;2022-12-18T14:45:38;102442.06;;;2.51;98.17
29461;BME280;16428;47.836;35.106;2022-12-18T14:48:40;102441.97;;;2.37;98.85
29461;BME280;16428;47.836;35.106;2022-12-18T14:51:37;102453.31;;;2.56;98.35
29461;BME280;16428;47.836;35.106;2022-12-18T14:54:35;102459.41;;;2.58;98.83
29461;BME280;16428;47.836;35.106;2022-12-18T14:57:36;102463.38;;;2.17;98.90
29461;BME280;16428;47.836;35.106;2022-12-18T15:00:55;102469.28;;;2.22;99.33
29461;BME280;16428;47.836;35.106;2022-12-18T15:04:00;102471.00;;;2.23;99.71
29461;BME280;16428;47.836;35.106;2022-12-18T15:07:18;102488.69;;;2.39;98.91
29461;BME280;16428;47.836;35.106;2022-12-18T15:10:21;102487.06;;;2.20;96.46
29461;BME280;16428;47.836;35.106;2022-12-18T15:13:24;102498.91;;;2.30;95.74
29461;BME280;16428;47.836;35.106;2022-12-18T15:16:22;102485.69;;;1.95;96.01
29461;BME280;16428;47.836;35.106;2022-12-18T15:19:35;102491.75;;;2.15;96.54
29461;BME280;16428;47.836;35.106;2022-12-18T15:22:47;102502.31;;;1.82;97.58
29461;BME280;16428;47.836;35.106;2022-12-18T15:29:22;102527.06;;;2.15;96.36
29461;BME280;16428;47.836;35.106;2022-12-18T15:32:19;102520.47;;;2.24;96.14
29461;BME280;16428;47.836;35.106;2022-12-18T15:35:24;102526.53;;;2.26;95.71
29461;BME280;16428;47.836;35.106;2022-12-18T15:41:51;102535.03;;;2.32;97.17
29461;BME280;16428;47.836;35.106;2022-12-18T15:45:34;102549.00;;;2.36;96.92
29461;BME280;16428;47.836;35.106;2022-12-18T15:48:38;102546.81;;;2.27;97.61
29461;BME280;16428;47.836;35.106;2022-12-18T15:51:25;102556.16;;;2.17;95.29
29461;BME280;16428;47.836;35.106;2022-12-18T15:54:00;102566.00;;;2.32;95.64
29461;BME280;16428;47.836;35.106;2022-12-18T15:56:53;102566.16;;;2.29;93.80
29461;BME280;16428;47.836;35.106;2022-12-18T15:59:56;102580.88;;;2.34;92.94
29461;BME280;16428;47.836;35.106;2022-12-18T16:02:28;102578.00;;;2.22;91.98
29461;BME280;16428;47.836;35.106;2022-12-18T16:05:01;102587.19;;;2.15;92.12
29461;BME280;16428;47.836;35.106;2022-12-18T16:07:33;102588.47;;;2.25;92.84
29461;BME280;16428;47.836;35.106;2022-12-18T16:10:17;102591.91;;;2.44;92.52
29461;BME280;16428;47.836;35.106;2022-12-18T16:13:19;102601.09;;;1.84;92.59
29461;BME280;16428;47.836;35.106;2022-12-18T16:16:15;102598.25;;;1.88;93.70
29461;BME280;16428;47.836;35.106;2022-12-18T16:19:12;102612.94;;;1.76;94.53
29461;BME280;16428;47.836;35.106;2022-12-18T16:22:00;102620.50;;;1.67;95.18
29461;BME280;16428;47.836;35.106;2022-12-18T16:24:50;102615.59;;;1.76;96.07
29461;BME280;16428;47.836;35.106;2022-12-18T16:27:51;102614.03;;;1.72;93.35
29461;BME280;16428;47.836;35.106;2022-12-18T16:30:51;102624.22;;;1.63;93.81
29461;BME280;16428;47.836;35.106;2022-12-18T16:33:37;102631.66;;;1.55;94.22
29461;BME280;16428;47.836;35.106;2022-12-18T16:36:29;102630.38;;;1.63;92.83
29461;BME280;16428;47.836;35.106;2022-12-18T16:39:38;102638.38;;;1.62;94.26
29461;BME280;16428;47.836;35.106;2022-12-18T16:42:36;102643.59;;;1.45;92.72
29461;BME280;16428;47.836;35.106;2022-12-18T16:48:48;102659.56;;;1.62;92.83
29461;BME280;16428;47.836;35.106;2022-12-18T16:51:46;102653.31;;;1.25;90.33
29461;BME280;16428;47.836;35.106;2022-12-18T16:54:31;102659.34;;;1.29;90.49
29461;BME280;16428;47.836;35.106;2022-12-18T16:57:15;102666.03;;;1.37;89.81
29461;BME280;16428;47.836;35.106;2022-12-18T17:00:19;102668.28;;;1.26;88.07
29461;BME280;16428;47.836;35.106;2022-12-18T17:03:17;102677.06;;;0.88;87.48
29461;BME280;16428;47.836;35.106;2022-12-18T17:06:15;102683.47;;;1.02;87.46
29461;BME280;16428;47.836;35.106;2022-12-18T17:09:13;102669.81;;;1.12;87.98
29461;BME280;16428;47.836;35.106;2022-12-18T17:11:54;102681.88;;;0.78;87.45
29461;BME280;16428;47.836;35.106;2022-12-18T17:14:24;102685.75;;;0.91;89.48
29461;BME280;16428;47.836;35.106;2022-12-18T17:16:59;102680.53;;;0.90;90.21
29461;BME280;16428;47.836;35.106;2022-12-18T17:19:47;102676.78;;;0.94;88.96
29461;BME280;16428;47.836;35.106;2022-12-18T17:22:15;102687.72;;;0.46;89.19
29461;BME280;16428;47.836;35.106;2022-12-18T17:24:48;102699.63;;;0.34;89.33
29461;BME280;16428;47.836;35.106;2022-12-18T17:27:25;102697.97;;;0.31;89.98
29461;BME280;16428;47.836;35.106;2022-12-18T17:29:54;102695.53;;;0.27;90.72
29461;BME280;16428;47.836;35.106;2022-12-18T17:32:22;102705.84;;;0.33;91.14
29461;BME280;16428;47.836;35.106;2022-12-18T17:34:50;102710.06;;;0.37;91.01
29461;BME280;16428;47.836;35.106;2022-12-18T17:37:18;102719.63;;;0.41;90.88
29461;BME280;16428;47.836;35.106;2022-12-18T17:39:46;102727.97;;;0.52;91.83
29461;BME280;16428;47.836;35.106;2022-12-18T17:42:16;102719.72;;;0.38;90.98
29461;BME280;16428;47.836;35.106;2022-12-18T17:44:46;102739.22;;;0.57;90.03
29461;BME280;16428;47.836;35.106;2022-12-18T17:47:30;102735.25;;;0.67;88.43
29461;BME280;16428;47.836;35.106;2022-12-18T17:49:58;102749.22;;;0.71;87.28
29461;BME280;16428;47.836;35.106;2022-12-18T17:52:26;102747.41;;;0.29;87.04
29461;BME280;16428;47.836;35.106;2022-12-18T17:54:55;102754.72;;;0.45;85.92
29461;BME280;16428;47.836;35.106;2022-12-18T17:57:24;102750.72;;;0.56;86.44
29461;BME280;16428;47.836;35.106;2022-12-18T17:59:57;102751.06;;;0.47;87.60
29461;BME280;16428;47.836;35.106;2022-12-18T18:02:25;102765.03;;;0.51;86.90